Algoa, Arkansas
Current Conditions -  °F | °C
As of 9:56 AM on Monday 24 Nov 2014 (Local Time) from KM19 Reporting Station
Clear Clear  
Wind Chill: 51°   Ceiling: Unl
Heat Index: 51°   Visibility: 10mi
Dew Point: 33°   Wind: 14mph
Humidity: 50%   Direction: 270°W
Pressure: 29.88"   Gusts: NA
Location:  35.5678°N, 91.2073°W
Report Text: KM19 241556Z AUTO 27012KT 10SM CLR 11/01 A2988 RMK AO2 T01050005 SLP117
Loading
Personal Weather Stations






























Interactive Weather Map New forecast layout! Learn more

10-Day Weather Forecast

Advertisements
Track Severe Weather on mobile